Time;durP1;ratioP1;P1;durP2;ratioP2;P2;SDS_P1;SDS_P2;PMS_P1;PMS_P2;Temp;Humidity;BMP_temperature;BMP_pressure;BME280_temperature;BME280_humidity;BME280_pressure;Samples;Min_cycle;Max_cycle;Signal;HPM_P1;HPM_P2
2022/01/11 00:01:46;;;;;;;1.80;1.40;;;21.30;29.60;;;;;;5058641;28;20033;-53
2022/01/11 00:04:16;;;;;;;2.00;1.50;;;21.20;29.60;;;;;;5048241;28;20052;-47
2022/01/11 00:06:50;;;;;;;2.20;1.65;;;21.30;29.60;;;;;;5053793;28;20119;-48
2022/01/11 00:09:22;;;;;;;1.95;1.52;;;21.20;29.60;;;;;;5046941;28;20029;-52
2022/01/11 00:11:49;;;;;;;2.30;1.88;;;21.20;29.60;;;;;;5041714;28;20052;-55
2022/01/11 00:14:15;;;;;;;2.72;1.95;;;21.20;29.60;;;;;;5048372;28;20454;-55
2022/01/11 00:16:41;;;;;;;2.40;1.90;;;21.20;29.50;;;;;;5052371;28;20029;-56
2022/01/11 00:19:07;;;;;;;2.30;1.90;;;21.20;29.50;;;;;;5056454;28;20021;-51
2022/01/11 00:21:37;;;;;;;2.42;2.05;;;21.20;29.50;;;;;;5074065;28;20351;-56
2022/01/11 00:26:48;;;;;;;2.00;1.80;;;21.20;29.50;;;;;;5070615;28;20044;-55
2022/01/11 00:29:13;;;;;;;1.98;1.77;;;21.20;29.50;;;;;;5046746;28;20022;-55
2022/01/11 00:31:40;;;;;;;2.20;1.80;;;21.20;29.50;;;;;;5027237;28;20021;-54
2022/01/11 00:34:07;;;;;;;2.40;2.00;;;21.20;29.50;;;;;;5047945;28;20028;-52
2022/01/11 00:36:42;;;;;;;3.25;2.20;;;21.20;29.50;;;;;;5042604;28;20104;-55
2022/01/11 00:39:12;;;;;;;2.28;2.05;;;21.20;29.50;;;;;;5025676;28;20048;-56
2022/01/11 00:41:43;;;;;;;3.25;2.28;;;21.20;29.50;;;;;;5038260;28;20017;-54
2022/01/11 00:44:10;;;;;;;2.80;2.33;;;21.20;29.50;;;;;;5013952;28;20464;-55
2022/01/11 00:46:36;;;;;;;3.08;2.22;;;21.10;29.40;;;;;;5047069;28;20029;-53
2022/01/11 00:49:03;;;;;;;2.97;2.33;;;21.10;29.40;;;;;;5044589;28;20033;-54
2022/01/11 00:51:29;;;;;;;2.50;2.05;;;21.10;29.50;;;;;;5076083;28;20020;-50
2022/01/11 00:53:55;;;;;;;2.53;2.33;;;21.10;29.40;;;;;;5029332;28;20025;-53
2022/01/11 00:56:21;;;;;;;2.38;2.08;;;21.10;29.40;;;;;;5039402;28;20056;-50
2022/01/11 00:58:47;;;;;;;2.45;1.90;;;21.10;29.40;;;;;;5055673;28;20021;-49
2022/01/11 01:01:14;;;;;;;2.33;1.90;;;21.10;29.40;;;;;;5052107;28;20025;-53
2022/01/11 01:03:40;;;;;;;2.15;1.80;;;21.10;29.40;;;;;;5047143;28;20036;-53
2022/01/11 01:06:05;;;;;;;2.72;2.00;;;21.10;29.40;;;;;;5052686;28;20028;-57
2022/01/11 01:08:32;;;;;;;2.00;1.77;;;21.10;29.40;;;;;;5046081;28;20423;-54
2022/01/11 01:10:58;;;;;;;2.40;2.10;;;21.10;29.40;;;;;;5052151;28;20328;-58
2022/01/11 01:13:29;;;;;;;2.40;2.15;;;21.10;29.40;;;;;;5048097;28;20390;-50
2022/01/11 01:16:01;;;;;;;2.92;2.45;;;21.00;29.30;;;;;;5038157;28;20051;-53
2022/01/11 01:18:50;;;;;;;2.45;1.77;;;21.00;29.30;;;;;;5029223;28;20036;-47
2022/01/11 01:21:17;;;;;;;2.10;1.90;;;21.00;29.30;;;;;;5075560;28;20444;-50
2022/01/11 01:23:44;;;;;;;2.28;1.95;;;21.00;29.30;;;;;;5072876;28;20051;-53
2022/01/11 01:26:10;;;;;;;2.25;2.05;;;21.00;29.30;;;;;;5052520;28;20025;-55
2022/01/11 01:28:37;;;;;;;3.08;2.38;;;21.00;29.30;;;;;;5035666;28;20445;-51
2022/01/11 01:31:03;;;;;;;2.33;2.13;;;21.00;29.30;;;;;;5021901;28;20020;-53
2022/01/11 01:33:31;;;;;;;2.50;2.10;;;21.00;29.30;;;;;;5036155;28;20032;-50
2022/01/11 01:36:02;;;;;;;2.55;1.80;;;21.00;29.30;;;;;;5056659;28;20123;-52
2022/01/11 01:38:29;;;;;;;2.65;2.13;;;21.00;29.30;;;;;;5035863;28;20059;-53
2022/01/11 01:41:01;;;;;;;2.28;1.90;;;21.00;29.30;;;;;;5041969;28;20344;-53
2022/01/11 01:43:28;;;;;;;2.28;2.00;;;21.00;29.30;;;;;;5039955;28;20025;-53
2022/01/11 01:45:58;;;;;;;2.55;2.10;;;21.00;29.30;;;;;;5075173;28;20031;-52
2022/01/11 01:48:24;;;;;;;2.35;1.80;;;21.00;29.30;;;;;;5058741;28;20029;-53
2022/01/11 01:50:51;;;;;;;2.15;1.95;;;21.00;29.30;;;;;;5025258;28;20029;-52
2022/01/11 01:53:17;;;;;;;2.00;1.80;;;21.00;29.30;;;;;;5035285;28;20100;-54
2022/01/11 01:55:45;;;;;;;2.63;1.98;;;21.00;29.30;;;;;;5047329;28;20045;-54
2022/01/11 01:58:12;;;;;;;2.75;2.45;;;21.00;29.30;;;;;;5023654;28;20028;-51
2022/01/11 02:00:42;;;;;;;2.72;2.30;;;21.00;29.30;;;;;;5055166;28;20029;-54
2022/01/11 02:03:12;;;;;;;1.52;1.42;;;20.90;29.30;;;;;;5038004;28;20049;-49
2022/01/11 02:05:40;;;;;;;2.30;2.08;;;20.90;29.30;;;;;;5071210;28;20040;-49
2022/01/11 02:08:07;;;;;;;2.00;1.80;;;20.90;29.30;;;;;;5042276;28;20016;-51
2022/01/11 02:10:35;;;;;;;1.98;1.85;;;20.90;29.40;;;;;;5055062;28;20079;-55
2022/01/11 02:13:01;;;;;;;2.25;1.77;;;20.90;29.40;;;;;;5036811;28;20112;-50
2022/01/11 02:15:27;;;;;;;3.10;2.10;;;20.90;29.40;;;;;;5037940;28;20025;-54
2022/01/11 02:17:53;;;;;;;2.35;2.15;;;20.90;29.40;;;;;;5033532;28;20104;-49
2022/01/11 02:20:19;;;;;;;2.38;2.00;;;20.90;29.40;;;;;;5030521;28;20132;-51
2022/01/11 02:22:45;;;;;;;2.95;2.10;;;20.90;29.40;;;;;;5064106;28;20033;-49
2022/01/11 02:25:11;;;;;;;2.55;2.17;;;20.90;29.30;;;;;;5042382;28;20386;-50
2022/01/11 02:27:37;;;;;;;2.55;2.15;;;20.90;29.40;;;;;;5043199;28;20084;-53
2022/01/11 02:30:05;;;;;;;2.60;2.10;;;20.80;29.30;;;;;;5038328;28;20107;-54
2022/01/11 02:32:32;;;;;;;2.17;1.98;;;20.80;29.30;;;;;;5039992;28;20086;-54
2022/01/11 02:34:57;;;;;;;2.58;2.20;;;20.90;29.40;;;;;;5058087;28;20016;-55
2022/01/11 02:37:25;;;;;;;3.67;2.90;;;20.80;29.30;;;;;;5043076;28;20122;-51
2022/01/11 02:39:54;;;;;;;2.83;2.47;;;20.80;29.30;;;;;;5051252;28;20056;-52
2022/01/11 02:42:24;;;;;;;3.72;2.65;;;20.80;29.30;;;;;;5053825;28;20459;-55
2022/01/11 02:44:50;;;;;;;2.92;2.50;;;20.80;29.30;;;;;;5037990;28;20078;-50
2022/01/11 02:47:20;;;;;;;2.97;2.47;;;20.80;29.30;;;;;;5029423;28;20025;-55
2022/01/11 02:49:48;;;;;;;3.05;2.40;;;20.80;29.30;;;;;;5031718;28;20380;-52
2022/01/11 02:52:21;;;;;;;2.90;2.42;;;20.80;29.30;;;;;;5040491;28;20029;-57
2022/01/11 02:54:53;;;;;;;3.53;2.63;;;20.80;29.30;;;;;;5036092;28;20037;-52
2022/01/11 02:57:20;;;;;;;3.15;2.63;;;20.80;29.30;;;;;;5022606;28;20049;-55
2022/01/11 02:59:48;;;;;;;3.88;2.72;;;20.80;29.30;;;;;;5036178;28;20071;-51
2022/01/11 03:02:16;;;;;;;3.17;2.60;;;20.80;29.30;;;;;;5026840;28;20028;-53
2022/01/11 03:04:44;;;;;;;3.63;2.60;;;20.80;29.30;;;;;;5040538;28;20033;-50
2022/01/11 03:07:11;;;;;;;2.75;2.42;;;20.80;29.30;;;;;;5035323;28;20020;-54
2022/01/11 03:09:58;;;;;;;2.50;2.30;;;20.80;29.30;;;;;;5040866;28;20437;-53
2022/01/11 03:12:25;;;;;;;3.55;2.70;;;20.80;29.30;;;;;;5045771;28;20086;-55
2022/01/11 03:14:51;;;;;;;2.90;2.60;;;20.80;29.30;;;;;;5041776;28;20107;-54
2022/01/11 03:17:17;;;;;;;2.92;2.45;;;20.80;29.30;;;;;;5047781;28;20105;-54
2022/01/11 03:19:43;;;;;;;2.65;2.38;;;20.70;29.30;;;;;;5057981;28;20067;-53
2022/01/11 03:22:09;;;;;;;3.50;2.83;;;20.80;29.30;;;;;;5052225;28;20060;-49
2022/01/11 03:24:35;;;;;;;2.90;2.60;;;20.70;29.30;;;;;;5021369;28;20037;-54
2022/01/11 03:27:01;;;;;;;2.90;2.45;;;20.70;29.30;;;;;;5021682;28;20052;-55
2022/01/11 03:29:28;;;;;;;3.25;2.88;;;20.70;29.30;;;;;;5030095;28;20016;-53
2022/01/11 03:31:54;;;;;;;3.33;2.63;;;20.70;29.30;;;;;;5039283;28;20520;-51
2022/01/11 03:34:20;;;;;;;3.35;2.70;;;20.70;29.30;;;;;;5055854;28;20060;-49
2022/01/11 03:36:48;;;;;;;3.58;2.60;;;20.70;29.20;;;;;;5058325;28;20024;-50
2022/01/11 03:39:14;;;;;;;4.45;2.75;;;20.70;29.20;;;;;;5053906;28;20035;-52
2022/01/11 03:41:40;;;;;;;3.35;2.47;;;20.70;29.30;;;;;;5040499;28;20044;-52
2022/01/11 03:44:06;;;;;;;2.60;2.40;;;20.70;29.20;;;;;;5040149;28;20059;-50
2022/01/11 03:46:32;;;;;;;2.67;2.42;;;20.70;29.20;;;;;;5040220;28;20025;-55
2022/01/11 03:48:58;;;;;;;3.35;2.65;;;20.70;29.20;;;;;;5035645;28;20115;-56
2022/01/11 03:51:27;;;;;;;2.97;2.47;;;20.70;29.20;;;;;;5040224;28;20064;-55
2022/01/11 03:54:07;;;;;;;3.22;2.53;;;20.70;29.20;;;;;;5036577;28;20435;-52
2022/01/11 03:56:37;;;;;;;3.83;2.85;;;20.60;29.20;;;;;;5037860;28;20049;-54
2022/01/11 03:59:10;;;;;;;3.50;2.70;;;20.60;29.20;;;;;;5050788;28;20320;-54
2022/01/11 04:01:38;;;;;;;3.13;2.80;;;20.60;29.20;;;;;;5035002;28;20436;-52
2022/01/11 04:04:05;;;;;;;3.85;3.10;;;20.60;29.20;;;;;;5038151;28;20455;-55
2022/01/11 04:06:31;;;;;;;2.63;2.30;;;20.60;29.20;;;;;;5040958;28;20036;-55
2022/01/11 04:08:57;;;;;;;2.72;2.33;;;20.60;29.10;;;;;;5042790;28;20036;-52
2022/01/11 04:11:23;;;;;;;3.42;2.95;;;20.60;29.10;;;;;;5030745;28;20083;-51
2022/01/11 04:13:49;;;;;;;3.33;2.78;;;20.60;29.10;;;;;;5062214;28;20352;-47
2022/01/11 04:16:15;;;;;;;3.05;2.70;;;20.60;29.10;;;;;;5024414;28;20035;-54
2022/01/11 04:18:42;;;;;;;3.50;2.97;;;20.60;29.10;;;;;;5058579;28;20024;-53
2022/01/11 04:21:08;;;;;;;3.53;2.95;;;20.60;29.10;;;;;;5040004;28;20048;-57
2022/01/11 04:23:35;;;;;;;3.38;2.85;;;20.60;29.10;;;;;;5043758;28;20059;-55
2022/01/11 04:26:01;;;;;;;3.72;3.08;;;20.60;29.10;;;;;;5039192;28;20054;-54
2022/01/11 04:28:28;;;;;;;3.47;2.55;;;20.60;29.10;;;;;;5038259;28;20043;-55
2022/01/11 04:30:59;;;;;;;3.05;2.50;;;20.60;29.30;;;;;;5029470;28;20030;-54
2022/01/11 04:33:31;;;;;;;3.30;2.58;;;20.60;29.10;;;;;;5037478;28;20024;-51
2022/01/11 04:35:59;;;;;;;3.30;2.83;;;20.60;29.10;;;;;;5037660;28;20029;-56
2022/01/11 04:38:27;;;;;;;3.67;2.85;;;20.60;29.10;;;;;;5018546;28;20042;-53
2022/01/11 04:40:53;;;;;;;3.97;3.13;;;20.50;29.10;;;;;;5036789;28;20025;-51
2022/01/11 04:43:20;;;;;;;2.80;2.50;;;20.50;29.10;;;;;;5028321;28;20036;-51
2022/01/11 04:45:47;;;;;;;3.75;2.90;;;20.50;29.10;;;;;;5029460;28;20336;-52
2022/01/11 04:48:15;;;;;;;3.05;2.70;;;20.50;29.10;;;;;;5030923;28;20029;-55
2022/01/11 04:50:41;;;;;;;2.97;2.65;;;20.50;29.10;;;;;;5018267;28;20044;-55
2022/01/11 04:53:11;;;;;;;3.22;2.90;;;20.50;29.60;;;;;;5036405;28;20032;-56
2022/01/11 04:55:37;;;;;;;4.20;3.38;;;20.50;29.10;;;;;;5002980;28;1110182;-55
2022/01/11 04:58:03;;;;;;;3.28;2.85;;;20.50;29.20;;;;;;5049319;28;20032;-54
2022/01/11 05:00:29;;;;;;;3.20;2.90;;;20.50;29.20;;;;;;5040777;28;20356;-51
2022/01/11 05:02:57;;;;;;;3.42;3.00;;;20.50;29.20;;;;;;5039383;28;20025;-53
2022/01/11 05:05:28;;;;;;;3.65;3.05;;;20.50;29.20;;;;;;5042003;28;20036;-53
2022/01/11 05:07:54;;;;;;;4.18;3.35;;;20.50;29.20;;;;;;5037865;28;20040;-52
2022/01/11 05:10:20;;;;;;;2.90;2.60;;;20.50;29.20;;;;;;5039449;28;20025;-53
2022/01/11 05:12:46;;;;;;;2.90;2.60;;;20.50;29.10;;;;;;5031211;28;20124;-55
2022/01/11 05:15:15;;;;;;;3.28;2.85;;;20.50;29.10;;;;;;5028046;28;20321;-51
2022/01/11 05:17:43;;;;;;;3.13;2.65;;;20.50;29.10;;;;;;5035032;28;20029;-49
2022/01/11 05:20:10;;;;;;;3.55;2.88;;;20.50;29.10;;;;;;5023225;28;20016;-56
2022/01/11 05:22:38;;;;;;;3.47;2.83;;;20.50;29.10;;;;;;5038200;28;20025;-53
2022/01/11 05:25:05;;;;;;;3.53;2.65;;;20.40;29.10;;;;;;5039745;28;20032;-50
2022/01/11 05:27:31;;;;;;;4.07;3.22;;;20.40;29.10;;;;;;5039146;28;20436;-50
2022/01/11 05:29:57;;;;;;;3.42;2.83;;;20.40;29.60;;;;;;5055348;28;20025;-55
2022/01/11 05:32:26;;;;;;;3.55;3.05;;;20.50;29.10;;;;;;5044964;28;20029;-54
2022/01/11 05:34:52;;;;;;;4.55;3.25;;;20.50;29.10;;;;;;5051445;28;20024;-57
2022/01/11 05:37:18;;;;;;;3.47;3.05;;;20.40;29.10;;;;;;5030956;28;20033;-57
2022/01/11 05:39:44;;;;;;;3.17;2.70;;;20.40;29.10;;;;;;5050721;28;20036;-54
2022/01/11 05:42:10;;;;;;;4.43;3.00;;;20.40;29.10;;;;;;5040849;28;20025;-51
2022/01/11 05:44:37;;;;;;;3.50;3.05;;;20.40;29.10;;;;;;5018238;28;20044;-53
2022/01/11 05:47:04;;;;;;;3.00;2.60;;;20.40;29.10;;;;;;5031927;28;20454;-53
2022/01/11 05:49:30;;;;;;;2.88;2.67;;;20.40;29.10;;;;;;5017957;28;20017;-56
2022/01/11 05:51:56;;;;;;;4.63;2.92;;;20.40;29.10;;;;;;5026190;28;20116;-51
2022/01/11 05:54:22;;;;;;;3.40;2.78;;;20.40;29.10;;;;;;5055523;28;20090;-55
2022/01/11 05:56:50;;;;;;;3.72;2.92;;;20.40;29.10;;;;;;5041488;28;20048;-53
2022/01/11 05:59:17;;;;;;;2.85;2.55;;;20.40;29.10;;;;;;5041898;28;20032;-56
2022/01/11 06:01:43;;;;;;;4.05;2.80;;;20.40;29.10;;;;;;5022110;28;20033;-49
2022/01/11 06:04:09;;;;;;;3.78;2.60;;;20.40;29.10;;;;;;5037413;28;20454;-54
2022/01/11 06:06:35;;;;;;;3.30;2.85;;;20.40;29.10;;;;;;5028514;28;20056;-49
2022/01/11 06:09:02;;;;;;;3.28;2.45;;;20.40;29.10;;;;;;5021142;28;20439;-52
2022/01/11 06:11:29;;;;;;;3.15;2.75;;;20.40;29.10;;;;;;5037719;28;20108;-52
2022/01/11 06:13:55;;;;;;;3.10;2.40;;;20.40;29.10;;;;;;5037748;28;20052;-55
2022/01/11 06:16:21;;;;;;;3.03;2.35;;;20.40;29.10;;;;;;5022146;28;20016;-47
2022/01/11 06:18:49;;;;;;;2.58;2.38;;;20.40;29.10;;;;;;5055396;28;20218;-52
2022/01/11 06:21:23;;;;;;;3.50;2.83;;;20.40;29.30;;;;;;5049946;28;20048;-50
2022/01/11 06:23:49;;;;;;;3.00;2.65;;;20.30;29.10;;;;;;5017864;28;20061;-54
2022/01/11 06:26:16;;;;;;;3.53;2.40;;;20.30;29.10;;;;;;5020772;28;20049;-55
2022/01/11 06:28:43;;;;;;;3.35;2.60;;;20.30;29.00;;;;;;5017711;28;20025;-52
2022/01/11 06:31:09;;;;;;;3.67;2.35;;;20.40;29.10;;;;;;5034802;28;20032;-48
2022/01/11 06:33:36;;;;;;;3.05;2.33;;;20.30;29.00;;;;;;5037216;28;20082;-48
2022/01/11 06:36:02;;;;;;;2.90;2.60;;;20.30;29.00;;;;;;5037836;28;20383;-49
2022/01/11 06:38:28;;;;;;;2.67;2.35;;;20.30;29.00;;;;;;5036148;28;20029;-55
2022/01/11 06:40:55;;;;;;;3.60;2.60;;;20.30;29.00;;;;;;5038194;28;20021;-52
2022/01/11 06:43:22;;;;;;;3.20;2.88;;;20.30;29.00;;;;;;5018520;28;20425;-56
2022/01/11 06:45:49;;;;;;;3.08;2.67;;;20.30;29.00;;;;;;5002317;28;20041;-53
2022/01/11 06:48:18;;;;;;;4.20;3.00;;;20.30;29.00;;;;;;5034496;28;20037;-56
2022/01/11 06:50:44;;;;;;;3.13;2.58;;;20.30;29.00;;;;;;5054947;28;20043;-54
2022/01/11 06:53:10;;;;;;;3.10;2.70;;;20.30;29.00;;;;;;5033014;28;20120;-52
2022/01/11 06:55:40;;;;;;;3.00;2.65;;;20.30;29.00;;;;;;5037232;28;20072;-55
2022/01/11 06:58:07;;;;;;;3.70;2.97;;;20.30;29.00;;;;;;5025896;28;20041;-54
2022/01/11 07:00:33;;;;;;;4.53;3.20;;;20.20;29.00;;;;;;5027525;28;20040;-53
2022/01/11 07:03:05;;;;;;;3.35;2.90;;;20.20;29.00;;;;;;5023160;28;20029;-56
2022/01/11 07:05:31;;;;;;;4.15;3.15;;;20.20;29.00;;;;;;5034043;28;20128;-53
2022/01/11 07:07:57;;;;;;;3.63;2.83;;;20.20;29.00;;;;;;5022408;28;20022;-52
2022/01/11 07:10:24;;;;;;;3.63;3.10;;;20.20;29.00;;;;;;5028732;28;20091;-50
2022/01/11 07:12:50;;;;;;;3.67;2.78;;;20.30;29.00;;;;;;5038118;28;20062;-54
2022/01/11 07:15:17;;;;;;;4.68;3.47;;;20.30;29.00;;;;;;5031600;28;20025;-49
2022/01/11 07:17:45;;;;;;;3.70;3.05;;;20.30;29.10;;;;;;5044811;28;20028;-46
2022/01/11 07:20:12;;;;;;;3.83;3.30;;;20.20;29.00;;;;;;5045456;28;20025;-55
2022/01/11 07:22:38;;;;;;;3.97;3.40;;;20.20;29.00;;;;;;5055598;28;20036;-52
2022/01/11 07:25:06;;;;;;;4.22;3.63;;;20.30;29.00;;;;;;5043163;28;20174;-49
2022/01/11 07:27:34;;;;;;;3.75;3.30;;;20.30;29.00;;;;;;5025916;28;20018;-51
2022/01/11 07:30:01;;;;;;;4.45;3.50;;;20.20;29.00;;;;;;5020672;28;20022;-52
2022/01/11 07:32:31;;;;;;;3.78;3.40;;;20.20;29.00;;;;;;5026769;28;20040;-54
2022/01/11 07:34:58;;;;;;;3.95;3.38;;;20.20;29.00;;;;;;5046778;28;20443;-50
2022/01/11 07:37:25;;;;;;;4.75;3.67;;;20.20;29.00;;;;;;5053730;28;20032;-52
2022/01/11 07:39:51;;;;;;;4.82;3.90;;;20.20;29.00;;;;;;5041552;28;20025;-52
2022/01/11 07:42:17;;;;;;;4.72;3.53;;;20.20;28.90;;;;;;5027745;28;20029;-52
2022/01/11 07:44:55;;;;;;;4.35;3.35;;;20.20;29.00;;;;;;5024602;28;20041;-52
2022/01/11 07:47:23;;;;;;;3.92;3.53;;;20.20;29.00;;;;;;5037617;28;20355;-48
2022/01/11 07:49:49;;;;;;;4.53;3.40;;;20.20;29.00;;;;;;5051530;28;20025;-48
2022/01/11 07:52:16;;;;;;;4.70;3.67;;;20.20;29.00;;;;;;5039494;28;20021;-47
2022/01/11 07:54:44;;;;;;;5.55;4.10;;;20.20;29.00;;;;;;5048708;28;20124;-50
2022/01/11 07:57:13;;;;;;;4.97;3.72;;;20.20;29.00;;;;;;5016226;28;20034;-51
2022/01/11 07:59:39;;;;;;;4.57;4.15;;;20.30;29.10;;;;;;5014771;28;20032;-52
2022/01/11 08:02:05;;;;;;;5.22;4.30;;;20.30;29.10;;;;;;5014081;28;20052;-51
2022/01/11 08:04:32;;;;;;;4.07;3.63;;;20.30;29.10;;;;;;5016800;28;20026;-47
2022/01/11 08:06:59;;;;;;;4.28;3.50;;;20.40;29.00;;;;;;5034730;28;20357;-49
2022/01/11 08:09:37;;;;;;;3.75;3.00;;;20.50;29.00;;;;;;5013097;28;20030;-53
2022/01/11 08:12:03;;;;;;;3.65;3.15;;;20.50;29.00;;;;;;5019466;28;20022;-53
2022/01/11 08:14:30;;;;;;;4.05;3.20;;;20.60;28.90;;;;;;5018841;28;20077;-47
2022/01/11 08:16:56;;;;;;;4.53;3.38;;;20.70;28.90;;;;;;5031496;28;20029;-56
2022/01/11 08:19:25;;;;;;;3.85;3.40;;;20.80;29.30;;;;;;5015476;28;20041;-52
2022/01/11 08:21:54;;;;;;;4.40;3.28;;;20.90;28.80;;;;;;5013352;28;20032;-52
2022/01/11 08:24:23;;;;;;;3.85;2.85;;;21.00;28.70;;;;;;5015094;28;20044;-54
2022/01/11 08:26:53;;;;;;;3.90;2.85;;;21.10;28.70;;;;;;5010886;28;20109;-56
2022/01/11 08:29:22;;;;;;;3.25;2.90;;;21.20;28.80;;;;;;5028951;28;20084;-54
2022/01/11 08:31:51;;;;;;;2.83;2.53;;;21.30;28.90;;;;;;5036010;28;20345;-52
2022/01/11 08:34:17;;;;;;;3.35;2.70;;;21.40;28.90;;;;;;5016326;28;20056;-51
2022/01/11 08:36:48;;;;;;;3.70;2.50;;;21.50;29.00;;;;;;5012350;28;20025;-45
2022/01/11 08:39:15;;;;;;;4.00;3.08;;;21.60;29.00;;;;;;5008240;28;20087;-48
2022/01/11 08:41:42;;;;;;;3.33;2.80;;;21.60;28.90;;;;;;5013526;28;20053;-49
2022/01/11 08:44:09;;;;;;;3.90;2.83;;;21.70;28.80;;;;;;5004390;28;20072;-50
2022/01/11 08:46:38;;;;;;;4.85;3.10;;;21.80;28.70;;;;;;4999405;28;20090;-53
2022/01/11 08:49:13;;;;;;;3.25;2.78;;;21.90;28.60;;;;;;5004668;28;20393;-52
2022/01/11 08:51:40;;;;;;;3.35;2.65;;;22.00;28.60;;;;;;5010135;28;20109;-49
2022/01/11 08:54:08;;;;;;;3.67;3.00;;;22.00;28.40;;;;;;5015507;28;20326;-48
2022/01/11 08:56:34;;;;;;;3.50;2.92;;;22.10;28.40;;;;;;5014641;28;20046;-50
2022/01/11 08:59:00;;;;;;;3.10;2.50;;;22.10;28.30;;;;;;5018307;28;20014;-49
2022/01/11 09:01:31;;;;;;;3.45;2.75;;;22.20;28.30;;;;;;5016224;28;20076;-48
2022/01/11 09:03:59;;;;;;;3.15;2.83;;;22.30;28.20;;;;;;5013385;28;20682;-52
2022/01/11 09:06:25;;;;;;;3.75;3.00;;;22.30;28.10;;;;;;5028548;28;20033;-49
2022/01/11 09:08:53;;;;;;;3.90;2.78;;;22.40;28.10;;;;;;5017740;28;20037;-51
2022/01/11 09:11:20;;;;;;;3.08;2.70;;;22.50;28.00;;;;;;5017371;28;20022;-49
2022/01/11 09:13:47;;;;;;;3.45;2.85;;;22.50;27.90;;;;;;5015694;28;20083;-51
2022/01/11 09:16:15;;;;;;;3.70;2.95;;;22.60;27.90;;;;;;5015275;28;20026;-55
2022/01/11 09:18:42;;;;;;;2.90;2.40;;;22.60;27.80;;;;;;5014330;28;20353;-49
2022/01/11 09:21:08;;;;;;;2.90;2.47;;;22.70;27.80;;;;;;5014093;28;20021;-51
2022/01/11 09:23:35;;;;;;;5.30;2.70;;;22.80;27.80;;;;;;5015477;28;20026;-51
2022/01/11 09:26:03;;;;;;;3.22;2.50;;;22.80;27.70;;;;;;5015085;28;20045;-58
2022/01/11 09:28:35;;;;;;;3.08;2.58;;;22.90;27.70;;;;;;5013527;28;20022;-59
2022/01/11 09:31:01;;;;;;;3.10;2.40;;;22.90;27.60;;;;;;5014284;28;20018;-52
2022/01/11 09:33:30;;;;;;;3.53;2.85;;;22.90;27.50;;;;;;5014222;28;20063;-60
2022/01/11 09:35:57;;;;;;;3.63;3.00;;;23.00;27.50;;;;;;5015310;28;20027;-54
2022/01/11 09:38:25;;;;;;;2.95;2.65;;;23.00;27.50;;;;;;5014000;28;20038;-57
2022/01/11 09:40:55;;;;;;;3.17;2.60;;;23.10;27.50;;;;;;5014212;28;20479;-52
2022/01/11 09:43:25;;;;;;;2.53;2.30;;;23.10;27.40;;;;;;5014649;28;20018;-49
2022/01/11 09:45:54;;;;;;;4.10;2.65;;;23.20;27.40;;;;;;4999309;28;20425;-53
2022/01/11 09:48:26;;;;;;;2.50;2.30;;;23.20;27.40;;;;;;5017011;28;20076;-51
2022/01/11 09:50:52;;;;;;;3.10;2.60;;;23.30;27.30;;;;;;5015192;28;20017;-49
2022/01/11 09:53:18;;;;;;;3.80;3.10;;;23.30;27.30;;;;;;5030742;28;20536;-50
2022/01/11 09:55:47;;;;;;;3.17;2.47;;;23.40;27.30;;;;;;5028695;28;20404;-49
2022/01/11 09:58:16;;;;;;;2.90;2.60;;;23.40;27.20;;;;;;5014430;28;20076;-55
2022/01/11 10:00:53;;;;;;;3.30;2.70;;;23.40;27.20;;;;;;5015837;28;20116;-50
2022/01/11 10:03:59;;;;;;;2.95;2.55;;;23.50;27.20;;;;;;4976867;28;20034;-50
2022/01/11 10:07:00;;;;;;;2.90;2.60;;;23.50;27.20;;;;;;5022257;28;20069;-53
2022/01/11 10:09:30;;;;;;;2.80;2.50;;;23.50;27.20;;;;;;5032518;28;20022;-53
2022/01/11 10:11:59;;;;;;;3.58;2.42;;;23.50;27.20;;;;;;5021499;28;20429;-50
2022/01/11 10:14:34;;;;;;;2.72;2.50;;;23.40;27.20;;;;;;5015606;28;20030;-51
2022/01/11 10:17:10;;;;;;;3.90;2.40;;;23.50;27.20;;;;;;5019447;28;20036;-51
2022/01/11 10:19:40;;;;;;;3.03;2.72;;;23.40;27.20;;;;;;5034424;28;20029;-51
2022/01/11 10:22:09;;;;;;;3.55;2.70;;;23.40;27.20;;;;;;5027739;28;20040;-51
2022/01/11 10:24:41;;;;;;;4.55;3.00;;;23.40;27.20;;;;;;5014308;28;20034;-50
2022/01/11 10:27:16;;;;;;;3.28;2.88;;;23.30;27.20;;;;;;5013579;28;20025;-51
2022/01/11 10:29:46;;;;;;;3.83;2.75;;;23.30;27.20;;;;;;5019891;28;20036;-50
2022/01/11 10:32:26;;;;;;;4.32;3.05;;;23.20;27.20;;;;;;5013986;28;20030;-49
2022/01/11 10:35:25;;;;;;;4.75;3.05;;;23.20;27.20;;;;;;5014592;28;20033;-51
2022/01/11 10:38:00;;;;;;;4.53;2.83;;;23.10;27.20;;;;;;4993585;28;20429;-50
2022/01/11 10:40:35;;;;;;;3.17;2.75;;;23.10;27.30;;;;;;5015350;28;20022;-56
2022/01/11 10:43:06;;;;;;;3.88;3.00;;;23.00;27.30;;;;;;5013757;28;20025;-53
2022/01/11 10:45:41;;;;;;;3.20;2.60;;;23.00;27.30;;;;;;5033381;28;20041;-52
2022/01/11 10:48:18;;;;;;;3.17;2.75;;;22.90;27.30;;;;;;5033218;28;20472;-50
2022/01/11 10:50:52;;;;;;;2.97;2.65;;;22.90;27.40;;;;;;5025869;28;20025;-49
2022/01/11 10:53:19;;;;;;;3.25;2.70;;;22.90;27.40;;;;;;5033075;28;20034;-52
2022/01/11 10:55:54;;;;;;;4.15;3.15;;;22.80;27.90;;;;;;5038236;28;20441;-47
2022/01/11 10:58:20;;;;;;;3.58;3.05;;;22.80;27.90;;;;;;5052409;28;20017;-54
2022/01/11 11:00:48;;;;;;;3.95;2.95;;;22.70;27.40;;;;;;5037363;28;20032;-52
2022/01/11 11:03:16;;;;;;;3.63;3.10;;;22.70;27.50;;;;;;5033880;28;20498;-52
2022/01/11 11:05:50;;;;;;;3.50;2.75;;;22.70;27.50;;;;;;5053795;28;20064;-51
2022/01/11 11:08:30;;;;;;;3.70;2.92;;;22.60;27.50;;;;;;5051040;28;20078;-49
2022/01/11 11:11:07;;;;;;;3.30;2.53;;;22.60;27.50;;;;;;5033756;28;20026;-53
2022/01/11 11:13:39;;;;;;;3.08;2.72;;;22.60;27.60;;;;;;5034181;28;20028;-55
2022/01/11 11:16:20;;;;;;;3.60;2.88;;;22.60;27.60;;;;;;5045269;28;20344;-54
2022/01/11 11:18:53;;;;;;;3.58;2.78;;;22.60;27.70;;;;;;5052141;28;20094;-55
2022/01/11 11:21:32;;;;;;;3.65;3.05;;;22.60;27.70;;;;;;5036705;28;20049;-53
2022/01/11 11:23:59;;;;;;;3.85;2.83;;;22.60;27.80;;;;;;5020441;28;20030;-52
2022/01/11 11:26:30;;;;;;;2.97;2.65;;;22.60;27.90;;;;;;5043047;28;20059;-53
2022/01/11 11:28:57;;;;;;;3.55;2.85;;;22.50;27.90;;;;;;5024050;28;20024;-58
2022/01/11 11:31:25;;;;;;;3.15;2.60;;;22.50;27.90;;;;;;5038584;28;20048;-48
2022/01/11 11:33:51;;;;;;;3.08;2.38;;;22.50;28.10;;;;;;5037863;28;20020;-55
2022/01/11 11:36:18;;;;;;;2.33;2.10;;;22.50;28.20;;;;;;5050704;28;20451;-53
2022/01/11 11:38:55;;;;;;;2.47;2.13;;;22.40;28.80;;;;;;5057011;28;20033;-55
2022/01/11 11:41:22;;;;;;;3.17;2.50;;;22.50;28.40;;;;;;5052929;28;20021;-48
2022/01/11 11:44:11;;;;;;;3.72;3.33;;;22.50;28.50;;;;;;5056452;28;20041;-52
2022/01/11 11:46:47;;;;;;;4.63;2.97;;;22.50;28.60;;;;;;5043026;28;20355;-56
2022/01/11 11:49:15;;;;;;;3.90;2.65;;;22.50;28.70;;;;;;5037582;28;20030;-50
2022/01/11 11:51:43;;;;;;;2.90;2.35;;;22.50;28.90;;;;;;5030466;28;20025;-55
2022/01/11 11:54:17;;;;;;;3.63;2.63;;;22.50;28.90;;;;;;5038313;28;20033;-54
2022/01/11 11:56:58;;;;;;;2.60;2.13;;;22.60;28.90;;;;;;5056425;28;20092;-47
2022/01/11 11:59:25;;;;;;;5.75;2.40;;;22.60;29.00;;;;;;5068679;28;20032;-49
2022/01/11 12:01:51;;;;;;;3.78;2.65;;;22.60;29.00;;;;;;5072055;28;20029;-52
2022/01/11 12:04:38;;;;;;;5.28;2.47;;;22.60;29.50;;;;;;5057162;28;20033;-47
2022/01/11 12:07:29;;;;;;;4.22;2.70;;;22.60;29.00;;;;;;5039280;28;20432;-51
2022/01/11 12:09:56;;;;;;;3.53;2.33;;;22.60;29.00;;;;;;5037716;28;20448;-51
2022/01/11 12:12:49;;;;;;;4.60;2.78;;;22.60;29.00;;;;;;5053836;28;20517;-49
2022/01/11 12:15:21;;;;;;;5.88;3.20;;;22.70;29.10;;;;;;5065550;28;20082;-55
2022/01/11 12:17:57;;;;;;;3.15;2.85;;;22.70;29.10;;;;;;5059573;28;20029;-53
2022/01/11 12:20:41;;;;;;;3.47;2.20;;;22.70;29.10;;;;;;5062247;28;20464;-50
2022/01/11 12:23:07;;;;;;;;;;;22.80;29.00;;;;;;5066220;28;20040;-53
2022/01/11 12:25:41;;;;;;;2.85;2.50;;;22.80;29.00;;;;;;5062165;28;20251;-55
2022/01/11 12:28:14;;;;;;;3.60;2.47;;;22.90;29.00;;;;;;5046022;28;20056;-53
2022/01/11 12:30:40;;;;;;;3.00;2.50;;;22.90;28.90;;;;;;5061070;28;20056;-58
2022/01/11 12:33:16;;;;;;;3.05;2.60;;;23.00;28.90;;;;;;5057045;28;20056;-58
2022/01/11 12:36:03;;;;;;;2.92;2.53;;;23.00;28.80;;;;;;5044261;28;20017;-56
2022/01/11 12:38:33;;;;;;;3.58;2.80;;;23.10;28.90;;;;;;5063504;28;20161;-48
2022/01/11 12:41:45;;;;;;;3.60;2.50;;;23.10;28.90;;;;;;5064535;28;20053;-57
2022/01/11 12:44:18;;;;;;;3.88;2.25;;;23.20;28.80;;;;;;5060186;28;22347;-58
2022/01/11 12:47:11;;;;;;;2.95;2.42;;;23.20;28.80;;;;;;5064457;28;20021;-54
2022/01/11 12:49:44;;;;;;;3.22;2.38;;;23.30;28.70;;;;;;5057946;28;20177;-56
2022/01/11 12:52:17;;;;;;;3.88;2.47;;;23.30;28.70;;;;;;5059564;28;20444;-56
2022/01/11 12:54:49;;;;;;;2.80;2.30;;;23.30;28.80;;;;;;5040628;28;20021;-54
2022/01/11 12:57:19;;;;;;;2.90;2.60;;;23.30;28.70;;;;;;5063287;28;20056;-58
2022/01/11 12:59:50;;;;;;;3.65;2.80;;;23.30;28.70;;;;;;5057673;28;20024;-51
2022/01/11 13:02:19;;;;;;;3.40;2.80;;;23.30;28.70;;;;;;5062616;28;20043;-54